Taumarunui, New Zealand
Current Conditions -  °F | °C
As of 12:30 PM on Tuesday 25 Nov 2014 (Local Time) from NZAA Reporting Station
Overcast Overcast  
Wind Chill: 70°   Ceiling: 2100
Heat Index: 70°   Visibility: 6mi
Dew Point: 64°   Wind: 10mph
Humidity: 83%   Direction: 230°SW
Pressure: 30"   Gusts: NA
Location:  38.88°S, 175.27°E
Report Text: NZAA 250030Z AUTO 23009KT 9999 OVC021/// 21/18 Q1016 TEMPOBKN014
Loading
Personal Weather Stations






























Interactive Weather Map New forecast layout! Learn more

10-Day Weather Forecast

Advertisements
Track Severe Weather on mobile